sensor_id;sensor_type;location;lat;lon;timestamp;P1;durP1;ratioP1;P2;durP2;ratioP2
22439;SDS011;11387;51.612;7.210;2024-02-21T00:01:15;34.17;;;13.82;;
22439;SDS011;11387;51.612;7.210;2024-02-21T00:03:39;35.50;;;13.95;;
22439;SDS011;11387;51.612;7.210;2024-02-21T00:06:03;33.35;;;13.80;;
22439;SDS011;11387;51.612;7.210;2024-02-21T00:08:27;33.13;;;14.95;;
22439;SDS011;11387;51.612;7.210;2024-02-21T00:10:51;35.75;;;14.18;;
22439;SDS011;11387;51.612;7.210;2024-02-21T00:13:15;39.53;;;14.43;;
22439;SDS011;11387;51.612;7.210;2024-02-21T00:15:41;36.67;;;14.90;;
22439;SDS011;11387;51.612;7.210;2024-02-21T00:18:06;36.65;;;14.90;;
22439;SDS011;11387;51.612;7.210;2024-02-21T00:20:29;38.58;;;15.85;;
22439;SDS011;11387;51.612;7.210;2024-02-21T00:22:53;40.72;;;14.20;;
22439;SDS011;11387;51.612;7.210;2024-02-21T00:25:17;31.70;;;14.23;;
22439;SDS011;11387;51.612;7.210;2024-02-21T00:27:41;33.10;;;15.80;;
22439;SDS011;11387;51.612;7.210;2024-02-21T00:30:05;32.30;;;15.73;;
22439;SDS011;11387;51.612;7.210;2024-02-21T00:32:29;32.33;;;14.10;;
22439;SDS011;11387;51.612;7.210;2024-02-21T00:34:56;30.88;;;14.02;;
22439;SDS011;11387;51.612;7.210;2024-02-21T00:37:20;34.63;;;13.60;;
22439;SDS011;11387;51.612;7.210;2024-02-21T00:39:44;33.63;;;15.48;;
22439;SDS011;11387;51.612;7.210;2024-02-21T00:42:10;43.92;;;16.20;;
22439;SDS011;11387;51.612;7.210;2024-02-21T00:44:34;42.65;;;15.38;;
22439;SDS011;11387;51.612;7.210;2024-02-21T00:46:57;42.22;;;15.52;;
22439;SDS011;11387;51.612;7.210;2024-02-21T00:49:20;35.83;;;15.32;;
22439;SDS011;11387;51.612;7.210;2024-02-21T00:51:46;32.75;;;14.05;;
22439;SDS011;11387;51.612;7.210;2024-02-21T00:54:10;36.53;;;14.13;;
22439;SDS011;11387;51.612;7.210;2024-02-21T00:56:33;41.67;;;14.02;;
22439;SDS011;11387;51.612;7.210;2024-02-21T00:58:57;41.78;;;14.63;;
22439;SDS011;11387;51.612;7.210;2024-02-21T01:01:21;39.75;;;14.90;;
22439;SDS011;11387;51.612;7.210;2024-02-21T01:03:45;33.47;;;13.82;;
22439;SDS011;11387;51.612;7.210;2024-02-21T01:06:09;33.60;;;15.07;;
22439;SDS011;11387;51.612;7.210;2024-02-21T01:08:34;36.40;;;14.25;;
22439;SDS011;11387;51.612;7.210;2024-02-21T01:10:57;40.63;;;15.38;;
22439;SDS011;11387;51.612;7.210;2024-02-21T01:13:21;36.70;;;14.23;;
22439;SDS011;11387;51.612;7.210;2024-02-21T01:15:45;34.00;;;13.45;;
22439;SDS011;11387;51.612;7.210;2024-02-21T01:18:08;34.90;;;14.90;;
22439;SDS011;11387;51.612;7.210;2024-02-21T01:20:32;43.03;;;16.10;;
22439;SDS011;11387;51.612;7.210;2024-02-21T01:22:55;36.22;;;16.40;;
22439;SDS011;11387;51.612;7.210;2024-02-21T01:25:21;41.35;;;13.93;;
22439;SDS011;11387;51.612;7.210;2024-02-21T01:27:44;42.08;;;14.48;;
22439;SDS011;11387;51.612;7.210;2024-02-21T01:30:08;36.75;;;16.08;;
22439;SDS011;11387;51.612;7.210;2024-02-21T01:32:32;31.95;;;13.82;;
22439;SDS011;11387;51.612;7.210;2024-02-21T01:34:56;29.08;;;13.55;;
22439;SDS011;11387;51.612;7.210;2024-02-21T01:37:20;30.80;;;14.98;;
22439;SDS011;11387;51.612;7.210;2024-02-21T01:39:43;37.53;;;14.30;;
22439;SDS011;11387;51.612;7.210;2024-02-21T01:42:08;37.55;;;15.35;;
22439;SDS011;11387;51.612;7.210;2024-02-21T01:44:32;33.47;;;14.55;;
22439;SDS011;11387;51.612;7.210;2024-02-21T01:46:55;32.28;;;13.35;;
22439;SDS011;11387;51.612;7.210;2024-02-21T01:49:19;34.38;;;14.38;;
22439;SDS011;11387;51.612;7.210;2024-02-21T01:51:44;32.55;;;13.85;;
22439;SDS011;11387;51.612;7.210;2024-02-21T01:54:08;34.00;;;14.55;;
22439;SDS011;11387;51.612;7.210;2024-02-21T01:56:33;35.60;;;14.65;;
22439;SDS011;11387;51.612;7.210;2024-02-21T01:58:58;33.80;;;14.73;;
22439;SDS011;11387;51.612;7.210;2024-02-21T02:01:22;33.63;;;14.00;;
22439;SDS011;11387;51.612;7.210;2024-02-21T02:03:46;35.85;;;14.55;;
22439;SDS011;11387;51.612;7.210;2024-02-21T02:06:10;40.58;;;14.70;;
22439;SDS011;11387;51.612;7.210;2024-02-21T02:08:34;33.72;;;13.82;;
22439;SDS011;11387;51.612;7.210;2024-02-21T02:10:57;33.97;;;14.27;;
22439;SDS011;11387;51.612;7.210;2024-02-21T02:13:21;36.00;;;13.57;;
22439;SDS011;11387;51.612;7.210;2024-02-21T02:15:48;33.22;;;12.15;;
22439;SDS011;11387;51.612;7.210;2024-02-21T02:18:13;43.63;;;14.98;;
22439;SDS011;11387;51.612;7.210;2024-02-21T02:20:37;36.45;;;13.10;;
22439;SDS011;11387;51.612;7.210;2024-02-21T02:23:02;31.92;;;13.88;;
22439;SDS011;11387;51.612;7.210;2024-02-21T02:25:31;34.85;;;15.23;;
22439;SDS011;11387;51.612;7.210;2024-02-21T02:27:55;32.17;;;13.95;;
22439;SDS011;11387;51.612;7.210;2024-02-21T02:30:18;33.85;;;12.88;;
22439;SDS011;11387;51.612;7.210;2024-02-21T02:32:44;34.90;;;12.13;;
22439;SDS011;11387;51.612;7.210;2024-02-21T02:35:08;27.90;;;12.32;;
22439;SDS011;11387;51.612;7.210;2024-02-21T02:37:31;28.52;;;12.15;;
22439;SDS011;11387;51.612;7.210;2024-02-21T02:39:55;28.60;;;12.55;;
22439;SDS011;11387;51.612;7.210;2024-02-21T02:42:20;31.50;;;13.07;;
22439;SDS011;11387;51.612;7.210;2024-02-21T02:44:43;31.23;;;12.75;;
22439;SDS011;11387;51.612;7.210;2024-02-21T02:47:08;37.25;;;13.63;;
22439;SDS011;11387;51.612;7.210;2024-02-21T02:49:31;35.13;;;12.60;;
22439;SDS011;11387;51.612;7.210;2024-02-21T02:51:55;31.45;;;12.35;;
22439;SDS011;11387;51.612;7.210;2024-02-21T02:54:18;31.38;;;11.30;;
22439;SDS011;11387;51.612;7.210;2024-02-21T02:56:42;29.83;;;13.13;;
22439;SDS011;11387;51.612;7.210;2024-02-21T02:59:07;30.83;;;12.73;;
22439;SDS011;11387;51.612;7.210;2024-02-21T03:01:33;27.98;;;12.35;;
22439;SDS011;11387;51.612;7.210;2024-02-21T03:03:57;37.75;;;13.27;;
22439;SDS011;11387;51.612;7.210;2024-02-21T03:06:20;34.08;;;13.40;;
22439;SDS011;11387;51.612;7.210;2024-02-21T03:08:44;33.65;;;13.40;;
22439;SDS011;11387;51.612;7.210;2024-02-21T03:11:08;25.48;;;12.27;;
22439;SDS011;11387;51.612;7.210;2024-02-21T03:13:33;40.65;;;12.85;;
22439;SDS011;11387;51.612;7.210;2024-02-21T03:15:58;33.50;;;11.68;;
22439;SDS011;11387;51.612;7.210;2024-02-21T03:18:21;40.40;;;12.90;;
22439;SDS011;11387;51.612;7.210;2024-02-21T03:20:45;32.35;;;12.35;;
22439;SDS011;11387;51.612;7.210;2024-02-21T03:23:09;34.53;;;13.30;;
22439;SDS011;11387;51.612;7.210;2024-02-21T03:25:32;26.80;;;12.23;;
22439;SDS011;11387;51.612;7.210;2024-02-21T03:27:56;26.65;;;11.38;;
22439;SDS011;11387;51.612;7.210;2024-02-21T03:30:20;32.65;;;13.10;;
22439;SDS011;11387;51.612;7.210;2024-02-21T03:32:45;33.08;;;11.70;;
22439;SDS011;11387;51.612;7.210;2024-02-21T03:35:08;35.90;;;13.18;;
22439;SDS011;11387;51.612;7.210;2024-02-21T03:37:32;34.03;;;12.13;;
22439;SDS011;11387;51.612;7.210;2024-02-21T03:39:56;34.72;;;13.45;;
22439;SDS011;11387;51.612;7.210;2024-02-21T03:42:19;28.17;;;11.65;;
22439;SDS011;11387;51.612;7.210;2024-02-21T03:44:43;30.70;;;12.05;;
22439;SDS011;11387;51.612;7.210;2024-02-21T03:47:07;31.45;;;12.50;;
22439;SDS011;11387;51.612;7.210;2024-02-21T03:49:34;35.95;;;13.63;;
22439;SDS011;11387;51.612;7.210;2024-02-21T03:51:57;27.60;;;12.18;;
22439;SDS011;11387;51.612;7.210;2024-02-21T03:54:21;25.27;;;11.93;;
22439;SDS011;11387;51.612;7.210;2024-02-21T03:56:45;30.63;;;11.77;;
22439;SDS011;11387;51.612;7.210;2024-02-21T03:59:09;23.73;;;10.90;;
22439;SDS011;11387;51.612;7.210;2024-02-21T04:01:33;32.17;;;12.15;;
22439;SDS011;11387;51.612;7.210;2024-02-21T04:03:58;30.23;;;11.48;;
22439;SDS011;11387;51.612;7.210;2024-02-21T04:06:23;27.27;;;12.00;;
22439;SDS011;11387;51.612;7.210;2024-02-21T04:08:46;34.65;;;13.57;;
22439;SDS011;11387;51.612;7.210;2024-02-21T04:11:10;26.77;;;10.07;;
22439;SDS011;11387;51.612;7.210;2024-02-21T04:13:34;32.00;;;12.05;;
22439;SDS011;11387;51.612;7.210;2024-02-21T04:15:57;28.00;;;11.07;;
22439;SDS011;11387;51.612;7.210;2024-02-21T04:18:21;24.00;;;10.43;;
22439;SDS011;11387;51.612;7.210;2024-02-21T04:20:44;22.17;;;10.70;;
22439;SDS011;11387;51.612;7.210;2024-02-21T04:23:09;31.33;;;13.00;;
22439;SDS011;11387;51.612;7.210;2024-02-21T04:25:33;28.92;;;11.77;;
22439;SDS011;11387;51.612;7.210;2024-02-21T04:27:57;29.05;;;11.65;;
22439;SDS011;11387;51.612;7.210;2024-02-21T04:30:20;30.75;;;11.57;;
22439;SDS011;11387;51.612;7.210;2024-02-21T04:32:44;29.67;;;9.88;;
22439;SDS011;11387;51.612;7.210;2024-02-21T04:35:07;25.73;;;10.98;;
22439;SDS011;11387;51.612;7.210;2024-02-21T04:37:31;31.00;;;11.68;;
22439;SDS011;11387;51.612;7.210;2024-02-21T04:39:56;24.35;;;9.95;;
22439;SDS011;11387;51.612;7.210;2024-02-21T04:42:20;24.83;;;10.52;;
22439;SDS011;11387;51.612;7.210;2024-02-21T04:44:44;25.00;;;9.93;;
22439;SDS011;11387;51.612;7.210;2024-02-21T04:47:08;29.65;;;10.30;;
22439;SDS011;11387;51.612;7.210;2024-02-21T04:49:32;27.58;;;11.40;;
22439;SDS011;11387;51.612;7.210;2024-02-21T04:51:55;29.88;;;11.85;;
22439;SDS011;11387;51.612;7.210;2024-02-21T04:54:19;24.33;;;10.80;;
22439;SDS011;11387;51.612;7.210;2024-02-21T04:56:44;32.15;;;13.70;;
22439;SDS011;11387;51.612;7.210;2024-02-21T04:59:07;27.00;;;10.07;;
22439;SDS011;11387;51.612;7.210;2024-02-21T05:01:31;30.08;;;11.70;;
22439;SDS011;11387;51.612;7.210;2024-02-21T05:03:55;23.30;;;11.60;;
22439;SDS011;11387;51.612;7.210;2024-02-21T05:06:18;26.73;;;9.85;;
22439;SDS011;11387;51.612;7.210;2024-02-21T05:08:42;25.55;;;10.90;;
22439;SDS011;11387;51.612;7.210;2024-02-21T05:11:05;29.33;;;9.50;;
22439;SDS011;11387;51.612;7.210;2024-02-21T05:13:30;18.83;;;10.38;;
22439;SDS011;11387;51.612;7.210;2024-02-21T05:15:54;27.08;;;11.38;;
22439;SDS011;11387;51.612;7.210;2024-02-21T05:18:17;33.17;;;11.43;;
22439;SDS011;11387;51.612;7.210;2024-02-21T05:20:41;23.42;;;9.10;;
22439;SDS011;11387;51.612;7.210;2024-02-21T05:23:05;28.40;;;10.90;;
22439;SDS011;11387;51.612;7.210;2024-02-21T05:25:28;26.67;;;10.25;;
22439;SDS011;11387;51.612;7.210;2024-02-21T05:27:52;17.48;;;8.95;;
22439;SDS011;11387;51.612;7.210;2024-02-21T05:30:19;26.38;;;9.95;;
22439;SDS011;11387;51.612;7.210;2024-02-21T05:32:42;29.15;;;9.00;;
22439;SDS011;11387;51.612;7.210;2024-02-21T05:35:06;30.83;;;9.15;;
22439;SDS011;11387;51.612;7.210;2024-02-21T05:37:31;17.08;;;8.57;;
22439;SDS011;11387;51.612;7.210;2024-02-21T05:39:54;33.25;;;10.05;;
22439;SDS011;11387;51.612;7.210;2024-02-21T05:42:18;22.13;;;8.32;;
22439;SDS011;11387;51.612;7.210;2024-02-21T05:44:41;24.25;;;9.25;;
22439;SDS011;11387;51.612;7.210;2024-02-21T05:47:06;21.25;;;7.57;;
22439;SDS011;11387;51.612;7.210;2024-02-21T05:49:32;23.67;;;8.60;;
22439;SDS011;11387;51.612;7.210;2024-02-21T05:51:56;18.15;;;7.78;;
22439;SDS011;11387;51.612;7.210;2024-02-21T05:54:19;22.77;;;8.10;;
22439;SDS011;11387;51.612;7.210;2024-02-21T05:56:46;27.25;;;8.82;;
22439;SDS011;11387;51.612;7.210;2024-02-21T05:59:09;20.77;;;8.07;;
22439;SDS011;11387;51.612;7.210;2024-02-21T06:01:33;20.25;;;6.10;;
22439;SDS011;11387;51.612;7.210;2024-02-21T06:03:58;24.27;;;9.10;;
22439;SDS011;11387;51.612;7.210;2024-02-21T06:06:22;19.23;;;7.45;;
22439;SDS011;11387;51.612;7.210;2024-02-21T06:08:46;17.63;;;7.28;;
22439;SDS011;11387;51.612;7.210;2024-02-21T06:11:09;17.90;;;7.82;;
22439;SDS011;11387;51.612;7.210;2024-02-21T06:13:33;20.45;;;8.77;;
22439;SDS011;11387;51.612;7.210;2024-02-21T06:18:25;21.13;;;6.78;;
22439;SDS011;11387;51.612;7.210;2024-02-21T06:20:50;14.48;;;7.47;;
22439;SDS011;11387;51.612;7.210;2024-02-21T06:23:15;18.63;;;7.57;;
22439;SDS011;11387;51.612;7.210;2024-02-21T06:25:40;16.60;;;6.68;;
22439;SDS011;11387;51.612;7.210;2024-02-21T06:28:03;18.48;;;6.45;;
22439;SDS011;11387;51.612;7.210;2024-02-21T06:30:28;20.55;;;6.85;;
22439;SDS011;11387;51.612;7.210;2024-02-21T06:32:51;16.02;;;6.03;;
22439;SDS011;11387;51.612;7.210;2024-02-21T06:35:18;13.82;;;6.55;;
22439;SDS011;11387;51.612;7.210;2024-02-21T06:37:43;23.23;;;7.47;;
22439;SDS011;11387;51.612;7.210;2024-02-21T06:40:09;22.23;;;6.97;;
22439;SDS011;11387;51.612;7.210;2024-02-21T06:42:32;15.70;;;6.22;;
22439;SDS011;11387;51.612;7.210;2024-02-21T06:44:56;15.98;;;6.22;;
22439;SDS011;11387;51.612;7.210;2024-02-21T06:47:19;21.95;;;5.75;;
22439;SDS011;11387;51.612;7.210;2024-02-21T06:49:47;12.85;;;5.72;;
22439;SDS011;11387;51.612;7.210;2024-02-21T06:52:12;14.77;;;6.85;;
22439;SDS011;11387;51.612;7.210;2024-02-21T06:54:40;19.30;;;6.30;;
22439;SDS011;11387;51.612;7.210;2024-02-21T06:57:03;16.58;;;6.68;;
22439;SDS011;11387;51.612;7.210;2024-02-21T06:59:27;16.85;;;6.32;;
22439;SDS011;11387;51.612;7.210;2024-02-21T07:01:52;12.88;;;5.30;;
22439;SDS011;11387;51.612;7.210;2024-02-21T07:04:17;21.85;;;6.93;;
22439;SDS011;11387;51.612;7.210;2024-02-21T07:06:40;19.08;;;6.07;;
22439;SDS011;11387;51.612;7.210;2024-02-21T07:09:04;17.33;;;6.13;;
22439;SDS011;11387;51.612;7.210;2024-02-21T07:11:29;19.13;;;6.18;;
22439;SDS011;11387;51.612;7.210;2024-02-21T07:13:52;14.35;;;7.05;;
22439;SDS011;11387;51.612;7.210;2024-02-21T07:16:16;20.98;;;5.95;;
22439;SDS011;11387;51.612;7.210;2024-02-21T07:18:40;16.90;;;5.97;;
22439;SDS011;11387;51.612;7.210;2024-02-21T07:21:03;18.60;;;5.90;;
22439;SDS011;11387;51.612;7.210;2024-02-21T07:23:27;16.92;;;5.80;;
22439;SDS011;11387;51.612;7.210;2024-02-21T07:25:50;15.63;;;6.72;;
22439;SDS011;11387;51.612;7.210;2024-02-21T07:28:15;13.35;;;5.80;;
22439;SDS011;11387;51.612;7.210;2024-02-21T07:30:39;19.42;;;6.13;;
22439;SDS011;11387;51.612;7.210;2024-02-21T07:33:03;15.80;;;5.40;;
22439;SDS011;11387;51.612;7.210;2024-02-21T07:35:28;18.42;;;5.68;;
22439;SDS011;11387;51.612;7.210;2024-02-21T07:37:52;12.93;;;6.45;;
22439;SDS011;11387;51.612;7.210;2024-02-21T07:40:16;16.35;;;5.70;;
22439;SDS011;11387;51.612;7.210;2024-02-21T07:42:40;18.10;;;6.18;;
22439;SDS011;11387;51.612;7.210;2024-02-21T07:45:07;17.48;;;5.97;;
22439;SDS011;11387;51.612;7.210;2024-02-21T07:47:31;18.95;;;6.05;;
22439;SDS011;11387;51.612;7.210;2024-02-21T07:49:54;18.67;;;6.60;;
22439;SDS011;11387;51.612;7.210;2024-02-21T07:52:18;14.68;;;5.35;;
22439;SDS011;11387;51.612;7.210;2024-02-21T07:54:42;20.55;;;5.63;;
22439;SDS011;11387;51.612;7.210;2024-02-21T07:57:05;17.77;;;6.55;;
22439;SDS011;11387;51.612;7.210;2024-02-21T07:59:29;15.40;;;5.95;;
22439;SDS011;11387;51.612;7.210;2024-02-21T08:01:56;20.30;;;5.88;;
22439;SDS011;11387;51.612;7.210;2024-02-21T08:04:20;23.77;;;8.13;;
22439;SDS011;11387;51.612;7.210;2024-02-21T08:06:44;17.70;;;6.63;;
22439;SDS011;11387;51.612;7.210;2024-02-21T08:09:29;13.75;;;5.68;;
22439;SDS011;11387;51.612;7.210;2024-02-21T08:11:53;19.48;;;6.57;;
22439;SDS011;11387;51.612;7.210;2024-02-21T08:14:17;13.30;;;5.00;;
22439;SDS011;11387;51.612;7.210;2024-02-21T08:16:42;16.35;;;5.93;;
22439;SDS011;11387;51.612;7.210;2024-02-21T08:19:07;14.98;;;6.22;;
22439;SDS011;11387;51.612;7.210;2024-02-21T08:21:31;15.02;;;5.80;;
22439;SDS011;11387;51.612;7.210;2024-02-21T08:23:54;12.82;;;5.85;;
22439;SDS011;11387;51.612;7.210;2024-02-21T08:26:18;15.57;;;5.75;;
22439;SDS011;11387;51.612;7.210;2024-02-21T08:28:41;14.40;;;5.30;;
22439;SDS011;11387;51.612;7.210;2024-02-21T08:31:05;19.17;;;5.97;;
22439;SDS011;11387;51.612;7.210;2024-02-21T08:33:29;13.57;;;5.60;;
22439;SDS011;11387;51.612;7.210;2024-02-21T08:35:54;17.90;;;6.35;;
22439;SDS011;11387;51.612;7.210;2024-02-21T08:38:17;17.42;;;5.88;;
22439;SDS011;11387;51.612;7.210;2024-02-21T08:40:41;13.40;;;5.22;;
22439;SDS011;11387;51.612;7.210;2024-02-21T08:43:05;19.52;;;5.88;;
22439;SDS011;11387;51.612;7.210;2024-02-21T08:45:29;14.30;;;4.97;;
22439;SDS011;11387;51.612;7.210;2024-02-21T08:47:52;11.52;;;5.65;;
22439;SDS011;11387;51.612;7.210;2024-02-21T08:50:16;12.75;;;4.93;;
22439;SDS011;11387;51.612;7.210;2024-02-21T08:52:51;14.43;;;4.90;;
22439;SDS011;11387;51.612;7.210;2024-02-21T08:55:15;16.15;;;5.07;;
22439;SDS011;11387;51.612;7.210;2024-02-21T08:57:38;9.70;;;4.22;;
22439;SDS011;11387;51.612;7.210;2024-02-21T09:00:03;17.17;;;5.15;;
22439;SDS011;11387;51.612;7.210;2024-02-21T09:02:31;16.05;;;4.90;;
22439;SDS011;11387;51.612;7.210;2024-02-21T09:04:55;13.80;;;4.47;;
22439;SDS011;11387;51.612;7.210;2024-02-21T09:07:18;12.82;;;4.60;;
22439;SDS011;11387;51.612;7.210;2024-02-21T09:09:44;15.52;;;4.93;;
22439;SDS011;11387;51.612;7.210;2024-02-21T09:12:07;25.55;;;4.85;;
22439;SDS011;11387;51.612;7.210;2024-02-21T09:14:31;14.13;;;5.53;;
22439;SDS011;11387;51.612;7.210;2024-02-21T09:16:55;18.17;;;5.25;;
22439;SDS011;11387;51.612;7.210;2024-02-21T09:19:18;12.23;;;4.95;;
22439;SDS011;11387;51.612;7.210;2024-02-21T09:21:42;14.45;;;4.78;;
22439;SDS011;11387;51.612;7.210;2024-02-21T09:24:06;17.05;;;5.50;;
22439;SDS011;11387;51.612;7.210;2024-02-21T09:26:31;13.25;;;5.28;;
22439;SDS011;11387;51.612;7.210;2024-02-21T09:28:54;16.60;;;4.60;;
22439;SDS011;11387;51.612;7.210;2024-02-21T09:31:19;17.23;;;5.07;;
22439;SDS011;11387;51.612;7.210;2024-02-21T09:33:43;18.52;;;4.88;;
22439;SDS011;11387;51.612;7.210;2024-02-21T09:36:06;12.65;;;5.05;;
22439;SDS011;11387;51.612;7.210;2024-02-21T09:38:31;18.98;;;5.45;;
22439;SDS011;11387;51.612;7.210;2024-02-21T09:40:56;14.43;;;4.47;;
22439;SDS011;11387;51.612;7.210;2024-02-21T09:43:26;22.15;;;5.38;;
22439;SDS011;11387;51.612;7.210;2024-02-21T09:45:50;13.13;;;5.23;;
22439;SDS011;11387;51.612;7.210;2024-02-21T09:48:22;15.85;;;4.35;;
22439;SDS011;11387;51.612;7.210;2024-02-21T09:50:58;13.93;;;4.13;;
22439;SDS011;11387;51.612;7.210;2024-02-21T09:53:22;12.77;;;4.32;;
22439;SDS011;11387;51.612;7.210;2024-02-21T09:55:47;12.32;;;4.05;;
22439;SDS011;11387;51.612;7.210;2024-02-21T09:58:12;12.25;;;3.72;;
22439;SDS011;11387;51.612;7.210;2024-02-21T10:00:37;10.93;;;3.13;;
22439;SDS011;11387;51.612;7.210;2024-02-21T10:03:00;9.93;;;3.55;;
22439;SDS011;11387;51.612;7.210;2024-02-21T10:05:29;9.35;;;3.50;;
22439;SDS011;11387;51.612;7.210;2024-02-21T10:07:53;10.07;;;3.70;;
22439;SDS011;11387;51.612;7.210;2024-02-21T10:10:19;8.23;;;3.50;;
22439;SDS011;11387;51.612;7.210;2024-02-21T10:12:50;11.52;;;3.55;;
22439;SDS011;11387;51.612;7.210;2024-02-21T10:15:19;13.45;;;4.85;;
22439;SDS011;11387;51.612;7.210;2024-02-21T10:17:46;11.82;;;4.05;;
22439;SDS011;11387;51.612;7.210;2024-02-21T10:20:10;15.52;;;4.93;;
22439;SDS011;11387;51.612;7.210;2024-02-21T10:22:35;13.52;;;5.07;;
22439;SDS011;11387;51.612;7.210;2024-02-21T10:25:06;10.68;;;4.00;;
22439;SDS011;11387;51.612;7.210;2024-02-21T10:27:30;11.85;;;3.35;;
22439;SDS011;11387;51.612;7.210;2024-02-21T10:29:54;10.57;;;3.70;;
22439;SDS011;11387;51.612;7.210;2024-02-21T10:32:17;10.43;;;3.47;;
22439;SDS011;11387;51.612;7.210;2024-02-21T10:34:42;17.83;;;4.35;;
22439;SDS011;11387;51.612;7.210;2024-02-21T10:37:07;13.57;;;4.30;;
22439;SDS011;11387;51.612;7.210;2024-02-21T10:39:31;12.88;;;4.72;;
22439;SDS011;11387;51.612;7.210;2024-02-21T10:41:55;11.00;;;3.88;;
22439;SDS011;11387;51.612;7.210;2024-02-21T10:44:23;18.13;;;4.53;;
22439;SDS011;11387;51.612;7.210;2024-02-21T10:46:47;15.98;;;4.63;;
22439;SDS011;11387;51.612;7.210;2024-02-21T10:49:12;14.40;;;4.18;;
22439;SDS011;11387;51.612;7.210;2024-02-21T10:51:45;13.85;;;4.88;;
22439;SDS011;11387;51.612;7.210;2024-02-21T10:54:13;18.25;;;5.93;;
22439;SDS011;11387;51.612;7.210;2024-02-21T10:56:45;12.82;;;4.38;;
22439;SDS011;11387;51.612;7.210;2024-02-21T10:59:11;12.98;;;5.45;;
22439;SDS011;11387;51.612;7.210;2024-02-21T11:01:36;16.58;;;5.55;;
22439;SDS011;11387;51.612;7.210;2024-02-21T11:04:01;13.20;;;5.90;;
22439;SDS011;11387;51.612;7.210;2024-02-21T11:06:27;15.20;;;4.75;;
22439;SDS011;11387;51.612;7.210;2024-02-21T11:09:00;12.77;;;4.45;;
22439;SDS011;11387;51.612;7.210;2024-02-21T11:11:26;16.17;;;4.60;;
22439;SDS011;11387;51.612;7.210;2024-02-21T11:14:04;10.95;;;4.03;;
22439;SDS011;11387;51.612;7.210;2024-02-21T11:16:28;13.38;;;3.97;;
22439;SDS011;11387;51.612;7.210;2024-02-21T11:19:03;10.63;;;4.35;;
22439;SDS011;11387;51.612;7.210;2024-02-21T11:21:32;11.30;;;4.00;;
22439;SDS011;11387;51.612;7.210;2024-02-21T11:23:56;13.70;;;3.63;;
22439;SDS011;11387;51.612;7.210;2024-02-21T11:26:22;13.38;;;4.07;;
22439;SDS011;11387;51.612;7.210;2024-02-21T11:28:55;12.82;;;3.92;;
22439;SDS011;11387;51.612;7.210;2024-02-21T11:31:19;11.38;;;3.15;;
22439;SDS011;11387;51.612;7.210;2024-02-21T11:33:43;10.38;;;3.58;;
22439;SDS011;11387;51.612;7.210;2024-02-21T11:36:09;12.93;;;4.13;;
22439;SDS011;11387;51.612;7.210;2024-02-21T11:38:33;15.88;;;4.32;;
22439;SDS011;11387;51.612;7.210;2024-02-21T11:40:57;6.82;;;3.60;;
22439;SDS011;11387;51.612;7.210;2024-02-21T11:43:22;12.57;;;4.00;;
22439;SDS011;11387;51.612;7.210;2024-02-21T11:45:46;12.60;;;4.38;;
22439;SDS011;11387;51.612;7.210;2024-02-21T11:48:10;15.23;;;4.88;;
22439;SDS011;11387;51.612;7.210;2024-02-21T11:50:34;8.43;;;4.03;;
22439;SDS011;11387;51.612;7.210;2024-02-21T11:52:58;10.93;;;4.03;;
22439;SDS011;11387;51.612;7.210;2024-02-21T11:55:22;13.32;;;3.40;;
22439;SDS011;11387;51.612;7.210;2024-02-21T11:57:47;15.40;;;4.28;;
22439;SDS011;11387;51.612;7.210;2024-02-21T12:00:13;10.57;;;3.70;;
22439;SDS011;11387;51.612;7.210;2024-02-21T12:02:39;8.70;;;4.05;;
22439;SDS011;11387;51.612;7.210;2024-02-21T12:05:03;10.25;;;4.28;;
22439;SDS011;11387;51.612;7.210;2024-02-21T12:07:27;9.27;;;4.13;;
22439;SDS011;11387;51.612;7.210;2024-02-21T12:09:51;11.05;;;4.20;;
22439;SDS011;11387;51.612;7.210;2024-02-21T12:12:20;10.15;;;4.20;;
22439;SDS011;11387;51.612;7.210;2024-02-21T12:14:43;8.65;;;3.47;;
22439;SDS011;11387;51.612;7.210;2024-02-21T12:17:08;14.70;;;3.63;;
22439;SDS011;11387;51.612;7.210;2024-02-21T12:19:32;12.00;;;3.65;;
22439;SDS011;11387;51.612;7.210;2024-02-21T12:21:58;11.50;;;3.85;;
22439;SDS011;11387;51.612;7.210;2024-02-21T12:24:22;10.25;;;3.70;;
22439;SDS011;11387;51.612;7.210;2024-02-21T12:26:47;13.35;;;4.05;;
22439;SDS011;11387;51.612;7.210;2024-02-21T12:29:10;10.98;;;3.88;;
22439;SDS011;11387;51.612;7.210;2024-02-21T12:31:33;12.55;;;3.92;;
22439;SDS011;11387;51.612;7.210;2024-02-21T12:33:58;12.50;;;3.92;;
22439;SDS011;11387;51.612;7.210;2024-02-21T12:36:22;11.48;;;4.18;;
22439;SDS011;11387;51.612;7.210;2024-02-21T12:38:47;17.60;;;4.63;;
22439;SDS011;11387;51.612;7.210;2024-02-21T12:41:10;13.35;;;4.30;;
22439;SDS011;11387;51.612;7.210;2024-02-21T12:43:34;9.13;;;3.80;;
22439;SDS011;11387;51.612;7.210;2024-02-21T12:45:57;8.68;;;3.60;;
22439;SDS011;11387;51.612;7.210;2024-02-21T12:48:21;11.80;;;4.20;;
22439;SDS011;11387;51.612;7.210;2024-02-21T12:50:49;8.80;;;3.13;;
22439;SDS011;11387;51.612;7.210;2024-02-21T12:53:13;9.95;;;3.95;;
22439;SDS011;11387;51.612;7.210;2024-02-21T12:55:49;13.07;;;3.92;;
22439;SDS011;11387;51.612;7.210;2024-02-21T12:58:13;8.15;;;3.28;;
22439;SDS011;11387;51.612;7.210;2024-02-21T13:00:37;26.10;;;10.32;;
22439;SDS011;11387;51.612;7.210;2024-02-21T13:03:01;14.23;;;3.50;;
22439;SDS011;11387;51.612;7.210;2024-02-21T13:05:24;14.02;;;3.00;;
22439;SDS011;11387;51.612;7.210;2024-02-21T13:07:50;10.93;;;3.78;;
22439;SDS011;11387;51.612;7.210;2024-02-21T13:10:14;10.70;;;2.88;;
22439;SDS011;11387;51.612;7.210;2024-02-21T13:12:38;15.52;;;3.83;;
22439;SDS011;11387;51.612;7.210;2024-02-21T13:15:01;8.77;;;3.10;;
22439;SDS011;11387;51.612;7.210;2024-02-21T13:17:25;6.60;;;2.65;;
22439;SDS011;11387;51.612;7.210;2024-02-21T13:22:17;9.85;;;2.85;;
22439;SDS011;11387;51.612;7.210;2024-02-21T13:24:43;14.23;;;2.78;;
22439;SDS011;11387;51.612;7.210;2024-02-21T13:27:07;8.63;;;2.90;;
22439;SDS011;11387;51.612;7.210;2024-02-21T13:29:30;11.02;;;2.78;;
22439;SDS011;11387;51.612;7.210;2024-02-21T13:31:53;14.35;;;5.15;;
22439;SDS011;11387;51.612;7.210;2024-02-21T13:34:17;7.20;;;2.53;;
22439;SDS011;11387;51.612;7.210;2024-02-21T13:36:41;10.68;;;2.75;;
22439;SDS011;11387;51.612;7.210;2024-02-21T13:39:05;13.18;;;3.67;;
22439;SDS011;11387;51.612;7.210;2024-02-21T13:41:30;7.78;;;2.83;;
22439;SDS011;11387;51.612;7.210;2024-02-21T13:43:55;15.32;;;2.78;;
22439;SDS011;11387;51.612;7.210;2024-02-21T13:46:19;10.43;;;3.00;;
22439;SDS011;11387;51.612;7.210;2024-02-21T13:48:43;13.82;;;3.53;;
22439;SDS011;11387;51.612;7.210;2024-02-21T13:51:06;14.70;;;3.70;;
22439;SDS011;11387;51.612;7.210;2024-02-21T13:53:30;9.55;;;3.03;;
22439;SDS011;11387;51.612;7.210;2024-02-21T13:55:53;9.27;;;2.47;;
22439;SDS011;11387;51.612;7.210;2024-02-21T13:58:18;11.63;;;2.97;;
22439;SDS011;11387;51.612;7.210;2024-02-21T14:00:43;12.77;;;2.33;;
22439;SDS011;11387;51.612;7.210;2024-02-21T14:03:06;8.48;;;2.53;;
22439;SDS011;11387;51.612;7.210;2024-02-21T14:05:30;14.48;;;3.25;;
22439;SDS011;11387;51.612;7.210;2024-02-21T14:07:53;12.93;;;3.20;;
22439;SDS011;11387;51.612;7.210;2024-02-21T14:10:17;10.00;;;2.67;;
22439;SDS011;11387;51.612;7.210;2024-02-21T14:12:41;10.52;;;2.88;;
22439;SDS011;11387;51.612;7.210;2024-02-21T14:15:06;9.38;;;3.53;;
22439;SDS011;11387;51.612;7.210;2024-02-21T14:17:30;15.43;;;3.08;;
22439;SDS011;11387;51.612;7.210;2024-02-21T14:19:54;12.48;;;3.10;;